createdAt,value
2018-06-27T00:02:05.903Z,102288.70
2018-06-27T00:04:34.890Z,102290.56
2018-06-27T00:07:03.883Z,102287.86
2018-06-27T00:09:32.790Z,102286.52
2018-06-27T00:12:02.029Z,102282.07
2018-06-27T00:14:31.006Z,102280.72
2018-06-27T00:17:00.083Z,102287.86
2018-06-27T00:19:29.151Z,102289.30
2018-06-27T00:21:58.005Z,102283.90
2018-06-27T00:24:27.932Z,102279.49
2018-06-27T00:26:57.063Z,102285.25
2018-06-27T00:29:26.017Z,102276.41
2018-06-27T00:31:54.959Z,102281.42
2018-06-27T00:34:23.838Z,102279.59
2018-06-27T00:36:52.998Z,102274.66
2018-06-27T00:39:21.964Z,102270.27
2018-06-27T00:41:51.129Z,102272.48
2018-06-27T00:44:20.227Z,102270.27
2018-06-27T00:46:49.353Z,102276.14
2018-06-27T00:49:18.459Z,102272.95
2018-06-27T00:51:47.483Z,102271.22
2018-06-27T00:54:16.411Z,102270.35
2018-06-27T00:56:45.353Z,102270.35
2018-06-27T00:59:14.202Z,102277.97
2018-06-27T01:01:43.341Z,102282.50
2018-06-27T01:04:12.664Z,102286.55
2018-06-27T01:06:41.535Z,102281.75
2018-06-27T01:09:11.293Z,102282.14
2018-06-27T01:11:40.294Z,102281.27
2018-06-27T01:14:09.306Z,102280.80
2018-06-27T01:16:38.786Z,102283.58
2018-06-27T01:19:07.738Z,102286.77
2018-06-27T01:21:36.714Z,102281.36
2018-06-27T01:24:05.765Z,102285.92
2018-06-27T01:26:34.819Z,102278.30
2018-06-27T01:29:03.905Z,102284.06
2018-06-27T01:31:32.857Z,102284.58
2018-06-27T01:34:01.699Z,102286.77
2018-06-27T01:36:30.583Z,102285.92
2018-06-27T01:38:59.452Z,102290.81
2018-06-27T01:41:28.625Z,102295.73
2018-06-27T01:43:57.412Z,102295.73
2018-06-27T01:46:26.351Z,102300.77
2018-06-27T01:48:55.298Z,102298.07
2018-06-27T01:51:24.251Z,102301.13
2018-06-27T01:53:53.333Z,102298.91
2018-06-27T01:56:22.336Z,102305.66
2018-06-27T01:58:51.277Z,102300.26
2018-06-27T02:01:20.469Z,102302.48
2018-06-27T02:03:49.527Z,102306.05
2018-06-27T02:06:18.609Z,102301.61
2018-06-27T02:08:47.701Z,102304.31
2018-06-27T02:11:17.064Z,102311.45
2018-06-27T02:13:46.196Z,102315.11
2018-06-27T02:16:15.154Z,102308.75
2018-06-27T02:18:44.068Z,102313.28
2018-06-27T02:21:13.054Z,102315.11
2018-06-27T02:23:42.043Z,102313.76
2018-06-27T02:26:10.972Z,102312.92
2018-06-27T02:28:40.852Z,102313.76
2018-06-27T02:31:09.995Z,102312.53
2018-06-27T02:33:38.811Z,102297.69
2018-06-27T02:36:07.828Z,102304.31
2018-06-27T02:38:36.862Z,102303.47
2018-06-27T02:41:05.814Z,102303.34
2018-06-27T02:43:34.763Z,102305.96
2018-06-27T02:46:03.657Z,102305.84
2018-06-27T02:48:32.598Z,102297.56
2018-06-27T02:51:01.638Z,102305.23
2018-06-27T02:53:34.767Z,102307.33
2018-06-27T02:56:03.926Z,102305.89
2018-06-27T02:58:32.974Z,102308.47
2018-06-27T03:01:02.810Z,102309.61
2018-06-27T03:03:31.979Z,102305.95
2018-06-27T03:06:00.930Z,102299.55
2018-06-27T03:08:29.947Z,102300.81
2018-06-27T03:10:59.012Z,102298.86
2018-06-27T03:13:28.035Z,102304.52
2018-06-27T03:15:58.931Z,102307.61
2018-06-27T03:18:27.936Z,102302.09
2018-06-27T03:20:56.757Z,102296.95
2018-06-27T03:23:25.850Z,102290.59
2018-06-27T03:25:54.955Z,102297.61
2018-06-27T03:28:23.790Z,102300.57
2018-06-27T03:30:52.595Z,102294.08
2018-06-27T03:33:21.767Z,102292.13
2018-06-27T03:35:50.801Z,102290.66
2018-06-27T03:38:19.960Z,102302.11
2018-06-27T03:40:48.982Z,102303.72
2018-06-27T03:43:17.882Z,102298.23
2018-06-27T03:45:46.888Z,102300.80
2018-06-27T03:48:15.792Z,102310.04
2018-06-27T03:50:44.930Z,102313.48
2018-06-27T03:53:13.812Z,102312.88
2018-06-27T03:55:42.862Z,102319.03
2018-06-27T03:58:11.846Z,102318.45
2018-06-27T04:00:40.969Z,102317.84
2018-06-27T04:03:09.920Z,102314.22
2018-06-27T04:05:38.829Z,102307.81
2018-06-27T04:08:07.829Z,102312.26
2018-06-27T04:10:36.829Z,102314.73
2018-06-27T04:13:06.260Z,102309.33
2018-06-27T04:15:37.302Z,102309.08
2018-06-27T04:18:06.514Z,102303.20
2018-06-27T04:20:35.578Z,102307.51
2018-06-27T04:23:04.632Z,102308.25
2018-06-27T04:25:33.620Z,102306.33
2018-06-27T04:28:02.814Z,102298.47
2018-06-27T04:30:31.803Z,102300.09
2018-06-27T04:33:01.001Z,102295.42
2018-06-27T04:35:29.801Z,102299.73
2018-06-27T04:37:58.750Z,102309.45
2018-06-27T04:40:27.876Z,102311.06
2018-06-27T04:42:56.820Z,102318.21
2018-06-27T04:45:25.718Z,102328.28
2018-06-27T04:47:54.763Z,102330.41
2018-06-27T04:50:23.770Z,102325.27
2018-06-27T04:52:52.743Z,102326.00
2018-06-27T04:55:21.841Z,102334.38
2018-06-27T04:57:50.770Z,102331.06
2018-06-27T05:00:19.861Z,102333.16
2018-06-27T05:02:48.868Z,102332.06
2018-06-27T05:05:18.462Z,102327.91
2018-06-27T05:07:47.525Z,102325.07
2018-06-27T05:10:16.421Z,102330.25
2018-06-27T05:12:45.521Z,102330.52
2018-06-27T05:15:14.523Z,102326.45
2018-06-27T05:17:43.648Z,102331.16
2018-06-27T05:20:12.607Z,102319.20
2018-06-27T05:22:41.493Z,102329.09
2018-06-27T05:25:10.530Z,102324.45
2018-06-27T05:27:39.774Z,102318.05
2018-06-27T05:30:08.985Z,102322.84
2018-06-27T05:32:38.177Z,102324.34
2018-06-27T05:35:07.136Z,102328.80
2018-06-27T05:37:36.083Z,102324.61
2018-06-27T05:40:05.226Z,102331.63
2018-06-27T05:42:34.154Z,102323.89
2018-06-27T05:45:03.235Z,102321.05
2018-06-27T05:47:32.310Z,102324.88
2018-06-27T05:50:01.451Z,102320.69
2018-06-27T05:52:30.337Z,102321.95
2018-06-27T05:55:04.099Z,102326.26
2018-06-27T05:57:33.092Z,102323.32
2018-06-27T06:00:02.070Z,102321.84
2018-06-27T06:02:31.130Z,102326.14
2018-06-27T06:05:00.038Z,102326.53
2018-06-27T06:07:28.849Z,102328.48
2018-06-27T06:09:57.629Z,102331.09
2018-06-27T06:12:26.417Z,102322.84
2018-06-27T06:14:55.616Z,102332.56
2018-06-27T06:17:24.449Z,102333.44
2018-06-27T06:19:53.281Z,102334.30
2018-06-27T06:22:21.974Z,102327.89
2018-06-27T06:24:50.780Z,102333.20
2018-06-27T06:27:19.508Z,102338.13
2018-06-27T06:29:48.267Z,102337.12
2018-06-27T06:32:17.409Z,102337.87
2018-06-27T06:34:46.581Z,102343.53
2018-06-27T06:37:15.567Z,102347.11
2018-06-27T06:39:44.446Z,102342.08
2018-06-27T06:42:13.719Z,102340.11
2018-06-27T06:44:42.860Z,102347.61
2018-06-27T06:47:11.742Z,102348.00
2018-06-27T06:49:40.454Z,102349.21
2018-06-27T06:52:09.403Z,102353.20
2018-06-27T06:54:38.161Z,102353.56
2018-06-27T06:57:06.888Z,102355.16
2018-06-27T06:59:35.778Z,102353.33
2018-06-27T07:02:04.659Z,102356.28
2018-06-27T07:04:33.467Z,102357.53
2018-06-27T07:07:02.513Z,102353.47
2018-06-27T07:09:31.467Z,102353.83
2018-06-27T07:12:00.468Z,102364.42
2018-06-27T07:14:29.483Z,102362.58
2018-06-27T07:16:58.321Z,102364.31
2018-06-27T07:19:27.241Z,102364.19
2018-06-27T07:21:56.467Z,102364.92
2018-06-27T07:24:25.525Z,102363.56
2018-06-27T07:26:54.840Z,102364.81
2018-06-27T07:29:23.777Z,102360.23
2018-06-27T07:31:52.551Z,102361.59
2018-06-27T07:34:21.287Z,102365.17
2018-06-27T07:36:50.303Z,102365.55
2018-06-27T07:39:19.245Z,102370.83
2018-06-27T07:41:48.188Z,102365.06
2018-06-27T07:44:17.285Z,102365.42
2018-06-27T07:46:46.342Z,102373.55
2018-06-27T07:49:15.360Z,102371.32
2018-06-27T07:51:44.369Z,102371.84
2018-06-27T07:54:13.316Z,102379.97
2018-06-27T07:56:42.319Z,102386.73
2018-06-27T07:59:11.390Z,102392.16
2018-06-27T08:01:40.344Z,102389.93
2018-06-27T08:04:09.531Z,102394.34
2018-06-27T08:06:45.963Z,102392.64
2018-06-27T08:09:14.950Z,102397.19
2018-06-27T08:11:44.374Z,102398.92
2018-06-27T08:14:13.248Z,102402.12
2018-06-27T08:16:42.359Z,102396.80
2018-06-27T08:19:11.387Z,102400.86
2018-06-27T08:21:40.344Z,102400.03
2018-06-27T08:24:09.408Z,102404.92
2018-06-27T08:26:38.365Z,102403.22
2018-06-27T08:29:07.337Z,102405.06
2018-06-27T08:31:36.246Z,102398.29
2018-06-27T08:34:05.203Z,102394.23
2018-06-27T08:36:34.402Z,102397.42
2018-06-27T08:39:04.036Z,102402.35
2018-06-27T08:41:33.047Z,102399.78
2018-06-27T08:44:02.076Z,102402.97
2018-06-27T08:46:31.233Z,102403.94
2018-06-27T08:49:00.142Z,102406.65
2018-06-27T08:51:29.105Z,102406.16
2018-06-27T08:53:58.179Z,102395.95
2018-06-27T08:56:27.107Z,102400.02
2018-06-27T08:58:56.281Z,102400.50
2018-06-27T09:01:25.474Z,102402.33
2018-06-27T09:03:54.520Z,102407.41
2018-06-27T09:06:23.621Z,102402.95
2018-06-27T09:08:53.183Z,102409.72
2018-06-27T09:11:22.218Z,102415.14
2018-06-27T09:13:51.300Z,102409.83
2018-06-27T09:16:20.222Z,102405.41
2018-06-27T09:18:49.171Z,102410.34
2018-06-27T09:21:18.401Z,102416.86
2018-06-27T09:23:47.287Z,102420.41
2018-06-27T09:26:16.195Z,102416.48
2018-06-27T09:28:45.075Z,102415.12
2018-06-27T09:31:14.122Z,102416.61
2018-06-27T09:33:43.200Z,102417.09
2018-06-27T09:36:12.244Z,102425.31
2018-06-27T09:38:41.088Z,102419.55
2018-06-27T09:41:10.016Z,102418.77
2018-06-27T09:43:38.885Z,102422.31
2018-06-27T09:46:07.715Z,102427.87
2018-06-27T09:48:36.706Z,102426.64
2018-06-27T09:51:05.792Z,102428.48
2018-06-27T09:53:34.995Z,102420.94
2018-06-27T09:56:04.227Z,102417.38
2018-06-27T09:58:33.450Z,102424.27
2018-06-27T10:01:02.485Z,102427.97
2018-06-27T10:03:31.534Z,102412.19
2018-06-27T10:06:00.571Z,102415.02
2018-06-27T10:08:29.538Z,102409.25
2018-06-27T10:10:58.382Z,102415.64
2018-06-27T10:13:27.489Z,102415.28
2018-06-27T10:15:56.479Z,102416.25
2018-06-27T10:18:25.780Z,102413.67
2018-06-27T10:20:55.086Z,102420.54
2018-06-27T10:23:24.214Z,102419.19
2018-06-27T10:25:53.170Z,102415.12
2018-06-27T10:28:22.327Z,102414.25
2018-06-27T10:30:51.531Z,102418.83
2018-06-27T10:33:20.476Z,102412.65
2018-06-27T10:35:49.607Z,102416.36
2018-06-27T10:38:18.488Z,102409.59
2018-06-27T10:40:47.427Z,102411.42
2018-06-27T10:43:16.452Z,102416.84
2018-06-27T10:45:45.438Z,102413.27
2018-06-27T10:48:14.714Z,102418.29
2018-06-27T10:50:43.866Z,102413.39
2018-06-27T10:53:13.024Z,102412.52
2018-06-27T10:55:42.062Z,102416.20
2018-06-27T10:58:11.169Z,102409.91
2018-06-27T11:00:40.163Z,102406.37
2018-06-27T11:03:09.212Z,102406.86
2018-06-27T11:05:38.162Z,102410.05
2018-06-27T11:08:07.283Z,102413.63
2018-06-27T11:10:36.354Z,102415.59
2018-06-27T11:13:05.220Z,102414.23
2018-06-27T11:15:34.749Z,102419.13
2018-06-27T11:18:03.968Z,102410.66
2018-06-27T11:20:32.905Z,102409.30
2018-06-27T11:23:02.022Z,102408.92
2018-06-27T11:25:31.077Z,102410.27
2018-06-27T11:27:59.943Z,102407.21
2018-06-27T11:30:28.940Z,102413.98
2018-06-27T11:32:58.080Z,102411.37
2018-06-27T11:35:27.133Z,102415.91
2018-06-27T11:37:56.206Z,102412.37
2018-06-27T11:40:25.185Z,102414.20
2018-06-27T11:42:54.232Z,102411.50
2018-06-27T11:45:23.281Z,102409.27
2018-06-27T11:47:52.223Z,102406.19
2018-06-27T11:50:21.109Z,102404.48
2018-06-27T11:52:50.325Z,102406.67
2018-06-27T11:55:19.311Z,102412.21
2018-06-27T11:57:48.275Z,102410.38
2018-06-27T12:00:17.455Z,102409.50
2018-06-27T12:02:46.467Z,102405.92
2018-06-27T12:05:15.601Z,102401.88
2018-06-27T12:07:44.594Z,102402.87
2018-06-27T12:10:13.485Z,102400.64
2018-06-27T12:12:42.477Z,102403.35
2018-06-27T12:15:11.517Z,102404.70
2018-06-27T12:17:40.455Z,102394.84
2018-06-27T12:20:09.342Z,102403.97
2018-06-27T12:22:38.364Z,102403.83
2018-06-27T12:25:07.359Z,102403.97
2018-06-27T12:27:36.341Z,102394.59
2018-06-27T12:30:05.754Z,102398.03
2018-06-27T12:32:34.698Z,102399.03
2018-06-27T12:35:03.630Z,102404.45
2018-06-27T12:37:32.629Z,102406.16
2018-06-27T12:40:01.811Z,102399.03
2018-06-27T12:42:30.553Z,102401.26
2018-06-27T12:44:59.501Z,102403.45
2018-06-27T12:47:28.542Z,102398.03
2018-06-27T12:49:57.601Z,102397.07
2018-06-27T12:52:26.704Z,102392.14
2018-06-27T12:55:03.657Z,102391.27
2018-06-27T12:57:33.546Z,102393.02
2018-06-27T13:00:02.908Z,102396.20
2018-06-27T13:02:31.888Z,102387.59
2018-06-27T13:05:01.001Z,102387.59
2018-06-27T13:07:30.062Z,102384.41
2018-06-27T13:09:58.968Z,102387.11
2018-06-27T13:12:27.947Z,102381.22
2018-06-27T13:14:56.855Z,102382.92
2018-06-27T13:17:25.762Z,102377.16
2018-06-27T13:19:54.791Z,102376.29
2018-06-27T13:22:23.682Z,102374.45
2018-06-27T13:24:52.671Z,102366.69
2018-06-27T13:27:21.794Z,102367.17
2018-06-27T13:29:50.814Z,102367.56
2018-06-27T13:32:19.946Z,102364.38
2018-06-27T13:34:49.116Z,102360.31
2018-06-27T13:37:18.065Z,102365.24
2018-06-27T13:39:47.039Z,102355.38
2018-06-27T13:42:16.089Z,102357.96
2018-06-27T13:44:44.990Z,102356.61
2018-06-27T13:47:14.010Z,102357.48
2018-06-27T13:49:42.977Z,102359.83
2018-06-27T13:52:11.899Z,102352.20
2018-06-27T13:54:43.635Z,102353.06
2018-06-27T13:57:13.389Z,102353.06
2018-06-27T13:59:42.404Z,102349.84
2018-06-27T14:02:11.317Z,102349.48
2018-06-27T14:04:40.319Z,102345.05
2018-06-27T14:07:09.255Z,102346.30
2018-06-27T14:09:38.565Z,102349.01
2018-06-27T14:12:07.485Z,102343.59
2018-06-27T14:14:36.361Z,102346.78
2018-06-27T14:17:05.393Z,102338.66
2018-06-27T14:19:34.581Z,102334.61
2018-06-27T14:22:03.746Z,102329.19
2018-06-27T14:24:33.174Z,102322.91
2018-06-27T14:27:02.259Z,102323.78
2018-06-27T14:29:31.479Z,102322.91
2018-06-27T14:32:00.584Z,102325.63
2018-06-27T14:34:29.576Z,102317.98
2018-06-27T14:36:58.687Z,102319.83
2018-06-27T14:39:27.873Z,102315.77
2018-06-27T14:41:56.960Z,102315.28
2018-06-27T14:44:26.012Z,102311.70
2018-06-27T14:46:55.227Z,102308.03
2018-06-27T14:49:24.308Z,102309.87
2018-06-27T14:51:53.616Z,102301.75
2018-06-27T14:54:22.721Z,102302.13
2018-06-27T14:56:51.703Z,102305.71
2018-06-27T14:59:20.723Z,102302.13
2018-06-27T15:01:49.617Z,102307.55
2018-06-27T15:04:18.633Z,102305.20
2018-06-27T15:06:47.656Z,102305.58
2018-06-27T15:09:16.724Z,102304.22
2018-06-27T15:11:45.814Z,102307.31
2018-06-27T15:14:14.816Z,102317.66
2018-06-27T15:16:44.019Z,102312.73
2018-06-27T15:19:13.260Z,102319.84
2018-06-27T15:21:42.546Z,102321.20
2018-06-27T15:24:11.593Z,102322.94
2018-06-27T15:26:40.528Z,102322.45
2018-06-27T15:29:09.712Z,102323.42
2018-06-27T15:31:38.749Z,102321.58
2018-06-27T15:34:07.966Z,102319.74
2018-06-27T15:36:36.991Z,102319.74
2018-06-27T15:39:08.281Z,102317.39
2018-06-27T15:41:37.832Z,102313.84
2018-06-27T15:44:07.497Z,102316.91
2018-06-27T15:46:36.917Z,102312.84
2018-06-27T15:49:07.747Z,102311.50
2018-06-27T15:51:36.847Z,102307.81
2018-06-27T15:54:06.010Z,102302.89
2018-06-27T15:56:35.138Z,102306.47
2018-06-27T15:59:04.142Z,102308.69
2018-06-27T16:01:33.181Z,102307.81
2018-06-27T16:04:02.002Z,102300.67
2018-06-27T16:06:31.168Z,102301.54
2018-06-27T16:09:00.163Z,102302.02
2018-06-27T16:11:29.279Z,102303.76
2018-06-27T16:13:58.334Z,102308.78
2018-06-27T16:16:27.405Z,102306.95
2018-06-27T16:18:56.624Z,102307.44
2018-06-27T16:21:25.645Z,102310.14
2018-06-27T16:23:54.802Z,102308.78
2018-06-27T16:26:23.761Z,102312.84
2018-06-27T16:28:52.982Z,102312.36
2018-06-27T16:31:22.182Z,102310.14
2018-06-27T16:33:51.133Z,102316.42
2018-06-27T16:36:20.203Z,102326.28
2018-06-27T16:38:49.130Z,102323.67
2018-06-27T16:41:18.262Z,102319.74
2018-06-27T16:43:47.453Z,102314.33
2018-06-27T16:46:16.719Z,102320.61
2018-06-27T16:48:45.964Z,102323.67
2018-06-27T16:51:15.132Z,102319.74
2018-06-27T16:53:44.332Z,102319.26
2018-06-27T16:56:13.406Z,102320.23
2018-06-27T16:58:42.659Z,102321.97
2018-06-27T17:01:11.788Z,102323.80
2018-06-27T17:03:40.774Z,102325.16
2018-06-27T17:06:09.772Z,102326.03
2018-06-27T17:08:39.047Z,102330.09
2018-06-27T17:11:08.101Z,102323.32
2018-06-27T17:13:37.303Z,102326.38
2018-06-27T17:16:06.536Z,102327.73
2018-06-27T17:18:35.794Z,102326.86
2018-06-27T17:21:05.087Z,102327.25
2018-06-27T17:23:34.355Z,102326.77
2018-06-27T17:26:03.324Z,102320.34
2018-06-27T17:28:32.724Z,102320.48
2018-06-27T17:31:03.471Z,102320.34
2018-06-27T17:33:33.343Z,102325.77
2018-06-27T17:36:02.128Z,102325.77
2018-06-27T17:38:31.001Z,102327.63
2018-06-27T17:40:59.926Z,102331.69
2018-06-27T17:43:28.907Z,102336.23
2018-06-27T17:45:57.867Z,102325.02
2018-06-27T17:48:26.693Z,102333.14
2018-06-27T17:50:55.987Z,102331.79
2018-06-27T17:53:24.884Z,102339.42
2018-06-27T17:55:53.643Z,102335.50
2018-06-27T17:58:22.769Z,102338.56
2018-06-27T18:00:51.863Z,102334.14
2018-06-27T18:03:21.105Z,102338.56
2018-06-27T18:05:50.164Z,102338.56
2018-06-27T18:08:19.210Z,102333.98
2018-06-27T18:10:48.522Z,102344.84
2018-06-27T18:13:17.640Z,102347.93
2018-06-27T18:15:47.204Z,102348.77
2018-06-27T18:18:16.211Z,102352.47
2018-06-27T18:20:45.340Z,102353.83
2018-06-27T18:23:14.618Z,102362.42
2018-06-27T18:25:43.601Z,102364.66
2018-06-27T18:28:12.678Z,102366.00
2018-06-27T18:30:41.735Z,102365.63
2018-06-27T18:33:11.010Z,102358.85
2018-06-27T18:35:40.255Z,102360.69
2018-06-27T18:38:09.344Z,102359.47
2018-06-27T18:40:38.505Z,102362.17
2018-06-27T18:43:07.531Z,102363.14
2018-06-27T18:45:36.667Z,102366.37
2018-06-27T18:48:05.930Z,102368.20
2018-06-27T18:50:34.995Z,102370.91
2018-06-27T18:53:03.901Z,102369.17
2018-06-27T18:55:33.058Z,102373.23
2018-06-27T18:58:02.171Z,102371.88
2018-06-27T19:00:31.254Z,102366.95
2018-06-27T19:03:00.398Z,102367.43
2018-06-27T19:05:29.656Z,102370.14
2018-06-27T19:07:58.975Z,102373.84
2018-06-27T19:10:27.990Z,102374.81
2018-06-27T19:12:57.043Z,102378.38
2018-06-27T19:15:26.143Z,102381.57
2018-06-27T19:17:55.406Z,102386.11
2018-06-27T19:20:24.458Z,102380.19
2018-06-27T19:22:53.486Z,102393.39
2018-06-27T19:25:22.952Z,102383.03
2018-06-27T19:27:52.140Z,102385.77
2018-06-27T19:30:21.401Z,102385.77
2018-06-27T19:32:50.641Z,102387.21
2018-06-27T19:35:19.827Z,102376.39
2018-06-27T19:37:49.163Z,102377.74
2018-06-27T19:40:18.555Z,102377.74
2018-06-27T19:42:47.654Z,102373.69
2018-06-27T19:45:16.835Z,102377.74
2018-06-27T19:47:46.281Z,102377.74
2018-06-27T19:50:15.742Z,102379.97
2018-06-27T19:52:45.035Z,102369.63
2018-06-27T19:55:14.300Z,102373.69
2018-06-27T19:57:43.458Z,102376.03
2018-06-27T20:00:12.479Z,102382.31
2018-06-27T20:02:41.911Z,102378.26
2018-06-27T20:05:11.223Z,102383.67
2018-06-27T20:07:40.520Z,102383.16
2018-06-27T20:10:09.695Z,102378.74
2018-06-27T20:12:39.863Z,102376.39
2018-06-27T20:15:09.340Z,102370.98
2018-06-27T20:17:38.396Z,102367.92
2018-06-27T20:20:08.615Z,102376.03
2018-06-27T20:22:37.953Z,102373.33
2018-06-27T20:25:07.533Z,102371.59
2018-06-27T20:27:37.110Z,102378.26
2018-06-27T20:30:06.879Z,102371.98
2018-06-27T20:32:36.107Z,102372.95
2018-06-27T20:35:05.579Z,102372.46
2018-06-27T20:37:34.834Z,102370.23
2018-06-27T20:40:03.954Z,102374.30
2018-06-27T20:42:33.181Z,102377.00
2018-06-27T20:45:02.882Z,102374.30
2018-06-27T20:47:31.784Z,102371.23
2018-06-27T20:50:01.010Z,102372.08
2018-06-27T20:52:30.132Z,102378.00
2018-06-27T20:54:59.095Z,102367.66
2018-06-27T20:57:28.499Z,102365.05
2018-06-27T20:59:57.655Z,102371.82
2018-06-27T21:02:26.865Z,102366.41
2018-06-27T21:04:56.068Z,102365.05
2018-06-27T21:07:25.172Z,102364.22
2018-06-27T21:09:54.211Z,102366.05
2018-06-27T21:12:23.390Z,102356.59
2018-06-27T21:14:52.609Z,102357.07
2018-06-27T21:17:21.796Z,102358.91
2018-06-27T21:19:51.075Z,102352.63
2018-06-27T21:22:20.250Z,102358.03
2018-06-27T21:24:49.468Z,102354.98
2018-06-27T21:27:18.632Z,102362.23
2018-06-27T21:29:47.906Z,102347.80
2018-06-27T21:32:16.963Z,102354.20
2018-06-27T21:34:46.799Z,102361.74
2018-06-27T21:37:15.905Z,102354.72
2018-06-27T21:39:44.967Z,102353.37
2018-06-27T21:42:14.314Z,102349.66
2018-06-27T21:44:43.421Z,102348.31
2018-06-27T21:47:12.451Z,102346.09
2018-06-27T21:49:41.624Z,102349.31
2018-06-27T21:52:10.595Z,102347.95
2018-06-27T21:54:39.815Z,102350.15
2018-06-27T21:57:08.943Z,102352.37
2018-06-27T21:59:38.143Z,102359.52
2018-06-27T22:02:07.466Z,102352.85
2018-06-27T22:04:36.843Z,102349.31
2018-06-27T22:07:06.261Z,102347.44
2018-06-27T22:09:35.495Z,102343.90
2018-06-27T22:12:04.647Z,102344.25
2018-06-27T22:14:33.853Z,102344.64
2018-06-27T22:17:03.197Z,102339.33
2018-06-27T22:19:32.526Z,102342.03
2018-06-27T22:22:01.615Z,102341.06
2018-06-27T22:24:30.810Z,102341.06
2018-06-27T22:27:00.205Z,102337.97
2018-06-27T22:29:29.524Z,102336.14
2018-06-27T22:31:58.552Z,102329.50
2018-06-27T22:34:27.642Z,102332.08
2018-06-27T22:36:56.676Z,102327.67
2018-06-27T22:39:25.960Z,102329.02
2018-06-27T22:41:55.096Z,102327.67
2018-06-27T22:44:24.118Z,102324.97
2018-06-27T22:46:53.253Z,102320.91
2018-06-27T22:49:22.475Z,102321.39
2018-06-27T22:51:51.346Z,102315.59
2018-06-27T22:54:20.404Z,102322.74
2018-06-27T22:56:49.347Z,102328.16
2018-06-27T22:59:18.330Z,102328.64
2018-06-27T23:01:47.336Z,102323.70
2018-06-27T23:04:16.469Z,102326.41
2018-06-27T23:06:45.484Z,102326.55
2018-06-27T23:09:14.322Z,102330.12
2018-06-27T23:11:43.379Z,102323.45
2018-06-27T23:14:12.350Z,102324.33
2018-06-27T23:16:41.552Z,102322.59
2018-06-27T23:19:10.651Z,102322.97
2018-06-27T23:21:39.679Z,102319.39
2018-06-27T23:24:09.195Z,102316.34
2018-06-27T23:26:39.314Z,102315.82
2018-06-27T23:29:09.234Z,102320.39
2018-06-27T23:31:39.027Z,102319.05
2018-06-27T23:34:08.855Z,102316.82
2018-06-27T23:36:38.707Z,102315.95
2018-06-27T23:39:11.538Z,102315.08
2018-06-27T23:41:41.822Z,102316.82
2018-06-27T23:44:10.859Z,102309.67
2018-06-27T23:46:40.166Z,102306.97
2018-06-27T23:49:09.525Z,102305.13
2018-06-27T23:51:38.967Z,102311.02
2018-06-27T23:54:08.586Z,102305.13
2018-06-27T23:56:38.394Z,102308.31
2018-06-27T23:59:08.305Z,102297.98
